39°F Temp
30°F Dewpoint
70% Humidity
Temperature
10 MPH
16 KM/H
9 KTS
300°
West North
West

Wind Speed
Clear
Conditions
Pressure 1004.4 (hPa) - 29.66 (in)
Visibility 10.0 (mi) - 16.1 (km)

Current Conditions
KORD
Location 30(mi)
Metar :KORD 231051Z 30009KT 10SM CLR 04/M01 A2966 RMK AO2 SLP045 T00391006 $
Fri 23rd February 05:51 am

Airport
  Metar Aviation API Data Provided by https://www.checkwx.com/ PHP scripts by weather34.com ©2024